createdAt,value
2023-04-07T00:00:28.120Z,7.50
2023-04-07T00:02:56.168Z,7.50
2023-04-07T00:05:23.330Z,7.50
2023-04-07T00:07:56.523Z,7.50
2023-04-07T00:10:25.803Z,7.50
2023-04-07T00:12:53.062Z,7.50
2023-04-07T00:15:20.454Z,7.50
2023-04-07T00:17:47.469Z,7.50
2023-04-07T00:20:14.582Z,7.50
2023-04-07T00:22:41.734Z,7.50
2023-04-07T00:25:09.143Z,7.40
2023-04-07T00:27:36.022Z,7.50
2023-04-07T00:30:03.547Z,7.40
2023-04-07T00:32:30.846Z,7.40
2023-04-07T00:34:57.641Z,7.30
2023-04-07T00:37:25.644Z,7.30
2023-04-07T00:39:52.659Z,7.30
2023-04-07T00:42:19.656Z,7.30
2023-04-07T00:44:46.474Z,7.30
2023-04-07T00:47:13.472Z,7.30
2023-04-07T00:49:40.547Z,7.30
2023-04-07T00:52:11.284Z,7.20
2023-04-07T00:54:39.894Z,7.30
2023-04-07T00:57:07.180Z,7.20
2023-04-07T00:59:34.754Z,7.20
2023-04-07T01:02:12.716Z,7.20
2023-04-07T01:04:48.309Z,7.20
2023-04-07T01:07:22.872Z,7.20
2023-04-07T01:10:00.934Z,7.20
2023-04-07T01:12:47.644Z,7.20
2023-04-07T01:15:15.773Z,7.20
2023-04-07T01:17:53.018Z,7.20
2023-04-07T01:20:23.029Z,7.20
2023-04-07T01:23:04.080Z,7.20
2023-04-07T01:25:39.872Z,7.20
2023-04-07T01:28:34.233Z,7.20
2023-04-07T01:31:02.476Z,7.20
2023-04-07T01:33:32.242Z,7.20
2023-04-07T01:36:01.954Z,7.10
2023-04-07T01:38:29.723Z,7.20
2023-04-07T01:40:59.083Z,7.20
2023-04-07T01:43:28.512Z,7.20
2023-04-07T01:45:58.547Z,7.20
2023-04-07T01:48:26.053Z,7.10
2023-04-07T01:50:53.699Z,7.10
2023-04-07T01:53:21.008Z,7.20
2023-04-07T01:55:47.853Z,7.10
2023-04-07T01:58:14.912Z,7.10
2023-04-07T02:00:42.192Z,7.10
2023-04-07T02:03:21.092Z,7.10
2023-04-07T02:05:50.978Z,7.10
2023-04-07T02:08:19.961Z,7.00
2023-04-07T02:10:49.020Z,7.00
2023-04-07T02:13:20.559Z,7.00
2023-04-07T02:15:50.332Z,7.00
2023-04-07T02:18:19.786Z,6.90
2023-04-07T02:20:48.791Z,6.90
2023-04-07T02:23:16.241Z,6.90
2023-04-07T02:25:43.229Z,6.90
2023-04-07T02:28:10.047Z,6.80
2023-04-07T02:30:37.197Z,6.80
2023-04-07T02:33:04.272Z,6.70
2023-04-07T02:35:31.321Z,6.70
2023-04-07T02:37:58.113Z,6.70
2023-04-07T02:40:25.059Z,6.70
2023-04-07T02:42:51.762Z,6.70
2023-04-07T02:45:18.538Z,6.60
2023-04-07T02:48:00.205Z,6.60
2023-04-07T02:50:29.071Z,6.60
2023-04-07T02:52:55.946Z,6.60
2023-04-07T02:55:22.871Z,6.50
2023-04-07T02:57:50.026Z,6.50
2023-04-07T03:00:17.001Z,6.50
2023-04-07T03:02:44.062Z,6.40
2023-04-07T03:05:11.086Z,6.40
2023-04-07T03:07:37.861Z,6.40
2023-04-07T03:10:05.822Z,6.40
2023-04-07T03:12:32.573Z,6.40
2023-04-07T03:14:59.432Z,6.40
2023-04-07T03:17:26.486Z,6.40
2023-04-07T03:19:53.352Z,6.40
2023-04-07T03:22:20.162Z,6.40
2023-04-07T03:24:47.081Z,6.40
2023-04-07T03:27:13.797Z,6.30
2023-04-07T03:29:41.044Z,6.40
2023-04-07T03:32:07.962Z,6.40
2023-04-07T03:34:34.821Z,6.30
2023-04-07T03:37:01.601Z,6.30
2023-04-07T03:39:28.670Z,6.30
2023-04-07T03:41:56.209Z,6.40
2023-04-07T03:44:23.252Z,6.20
2023-04-07T03:46:50.964Z,6.30
2023-04-07T03:49:17.841Z,6.30
2023-04-07T03:51:44.845Z,6.30
2023-04-07T03:54:11.751Z,6.30
2023-04-07T03:56:38.693Z,6.30
2023-04-07T03:59:05.733Z,6.20
2023-04-07T04:01:32.961Z,6.20
2023-04-07T04:04:00.078Z,6.20
2023-04-07T04:06:27.195Z,6.20
2023-04-07T04:08:54.612Z,6.20
2023-04-07T04:11:22.515Z,6.20
2023-04-07T04:13:49.269Z,6.20
2023-04-07T04:16:16.098Z,6.20
2023-04-07T04:18:42.918Z,6.20
2023-04-07T04:21:10.067Z,6.20
2023-04-07T04:23:37.153Z,6.20
2023-04-07T04:26:04.550Z,6.10
2023-04-07T04:28:31.730Z,6.20
2023-04-07T04:30:58.742Z,6.20
2023-04-07T04:33:25.670Z,6.20
2023-04-07T04:35:52.471Z,6.20
2023-04-07T04:38:19.841Z,6.20
2023-04-07T04:40:46.653Z,6.20
2023-04-07T04:43:13.428Z,6.20
2023-04-07T04:45:40.356Z,6.20
2023-04-07T04:48:07.553Z,6.20
2023-04-07T04:50:34.597Z,6.20
2023-04-07T04:53:01.403Z,6.20
2023-04-07T04:55:28.284Z,6.20
2023-04-07T04:57:55.240Z,6.20
2023-04-07T05:00:22.251Z,6.30
2023-04-07T05:02:49.190Z,6.30
2023-04-07T05:05:16.444Z,6.30
2023-04-07T05:07:43.255Z,6.30
2023-04-07T05:10:10.751Z,6.30
2023-04-07T05:12:37.796Z,6.30
2023-04-07T05:15:04.933Z,6.20
2023-04-07T05:17:32.037Z,6.30
2023-04-07T05:19:59.012Z,6.30
2023-04-07T05:22:26.009Z,6.40
2023-04-07T05:24:53.063Z,6.40
2023-04-07T05:27:20.084Z,6.40
2023-04-07T05:29:46.833Z,6.30
2023-04-07T05:32:13.672Z,6.40
2023-04-07T05:34:41.406Z,6.40
2023-04-07T05:37:08.165Z,6.40
2023-04-07T05:39:35.226Z,6.30
2023-04-07T05:42:03.486Z,6.30
2023-04-07T05:44:30.326Z,6.30
2023-04-07T05:46:57.094Z,6.40
2023-04-07T05:49:24.153Z,6.40
2023-04-07T05:51:50.918Z,6.40
2023-04-07T05:54:17.708Z,6.30
2023-04-07T05:56:44.702Z,6.30
2023-04-07T05:59:11.450Z,6.40
2023-04-07T06:01:39.111Z,6.40
2023-04-07T06:04:06.069Z,6.40
2023-04-07T06:06:32.926Z,6.40
2023-04-07T06:09:00.328Z,6.40
2023-04-07T06:11:27.870Z,6.40
2023-04-07T06:13:54.636Z,6.40
2023-04-07T06:16:21.600Z,6.40
2023-04-07T06:18:48.412Z,6.40
2023-04-07T06:21:15.766Z,6.50
2023-04-07T06:23:42.779Z,6.50
2023-04-07T06:26:12.174Z,6.50
2023-04-07T06:28:39.662Z,6.60
2023-04-07T06:31:07.396Z,6.60
2023-04-07T06:33:34.292Z,6.60
2023-04-07T06:36:01.259Z,6.70
2023-04-07T06:38:28.275Z,6.70
2023-04-07T06:40:55.169Z,6.70
2023-04-07T06:43:22.637Z,6.80
2023-04-07T06:45:50.004Z,7.00
2023-04-07T06:48:16.902Z,7.00
2023-04-07T06:50:47.514Z,6.90
2023-04-07T06:53:14.884Z,7.00
2023-04-07T06:55:42.169Z,7.00
2023-04-07T06:58:09.051Z,6.90
2023-04-07T07:00:37.235Z,7.00
2023-04-07T07:03:04.188Z,7.20
2023-04-07T07:05:31.338Z,7.20
2023-04-07T07:07:58.728Z,7.40
2023-04-07T07:10:25.732Z,7.30
2023-04-07T07:12:52.577Z,7.30
2023-04-07T07:15:19.892Z,7.30
2023-04-07T07:17:46.647Z,7.40
2023-04-07T07:20:13.596Z,7.50
2023-04-07T07:22:41.593Z,7.50
2023-04-07T07:25:08.665Z,7.50
2023-04-07T07:27:35.764Z,7.50
2023-04-07T07:30:02.916Z,7.50
2023-04-07T07:32:29.692Z,7.70
2023-04-07T07:34:56.486Z,7.60
2023-04-07T07:37:23.422Z,7.70
2023-04-07T07:39:50.191Z,7.80
2023-04-07T07:42:17.140Z,7.80
2023-04-07T07:44:44.097Z,8.00
2023-04-07T07:47:12.400Z,8.00
2023-04-07T07:49:39.641Z,8.20
2023-04-07T07:52:07.351Z,8.20
2023-04-07T07:54:35.601Z,8.30
2023-04-07T07:57:04.392Z,8.20
2023-04-07T07:59:31.590Z,8.60
2023-04-07T08:01:58.734Z,8.60
2023-04-07T08:04:26.582Z,8.80
2023-04-07T08:06:54.130Z,9.00
2023-04-07T08:09:21.030Z,8.90
2023-04-07T08:11:51.287Z,9.10
2023-04-07T08:14:18.429Z,9.00
2023-04-07T08:16:45.466Z,8.70
2023-04-07T08:19:14.066Z,8.90
2023-04-07T08:21:41.351Z,8.80
2023-04-07T08:24:10.871Z,9.00
2023-04-07T08:26:38.097Z,8.90
2023-04-07T08:29:05.320Z,9.20
2023-04-07T08:31:32.396Z,9.30
2023-04-07T08:33:59.759Z,8.80
2023-04-07T08:36:28.042Z,8.90
2023-04-07T08:38:55.160Z,9.00
2023-04-07T08:41:38.514Z,9.20
2023-04-07T08:44:06.573Z,9.20
2023-04-07T08:46:34.262Z,9.30
2023-04-07T08:49:02.208Z,9.40
2023-04-07T08:51:33.477Z,9.10
2023-04-07T08:54:13.403Z,9.00
2023-04-07T08:56:41.524Z,9.00
2023-04-07T08:59:10.412Z,9.30
2023-04-07T09:01:38.004Z,9.10
2023-04-07T09:04:07.286Z,9.10
2023-04-07T09:06:35.487Z,9.20
2023-04-07T09:09:03.812Z,9.10
2023-04-07T09:11:31.457Z,9.20
2023-04-07T09:13:59.350Z,9.10
2023-04-07T09:16:31.220Z,9.20
2023-04-07T09:18:58.488Z,9.60
2023-04-07T09:21:25.575Z,9.60
2023-04-07T09:23:52.685Z,9.70
2023-04-07T09:26:26.304Z,9.70
2023-04-07T09:28:59.631Z,9.70
2023-04-07T09:31:55.237Z,9.60
2023-04-07T09:34:34.266Z,9.80
2023-04-07T09:37:01.686Z,9.80
2023-04-07T09:39:28.734Z,9.70
2023-04-07T09:41:55.795Z,10.10
2023-04-07T09:44:23.731Z,9.80
2023-04-07T09:46:56.784Z,10.00
2023-04-07T09:49:27.670Z,9.80
2023-04-07T09:51:54.554Z,9.80
2023-04-07T09:54:39.043Z,9.50
2023-04-07T09:57:07.645Z,9.50
2023-04-07T09:59:37.455Z,9.60
2023-04-07T10:02:06.169Z,9.70
2023-04-07T10:04:33.240Z,9.70
2023-04-07T10:07:00.853Z,9.80
2023-04-07T10:09:29.060Z,9.70
2023-04-07T10:11:58.121Z,9.90
2023-04-07T10:14:31.703Z,9.80
2023-04-07T10:17:02.133Z,9.80
2023-04-07T10:19:36.507Z,9.80
2023-04-07T10:22:06.687Z,9.90
2023-04-07T10:24:43.884Z,10.10
2023-04-07T10:27:16.661Z,10.10
2023-04-07T10:29:49.317Z,10.20
2023-04-07T10:32:16.541Z,10.10
2023-04-07T10:34:55.420Z,10.20
2023-04-07T10:37:23.090Z,10.20
2023-04-07T10:40:09.824Z,10.10
2023-04-07T10:42:39.574Z,10.50
2023-04-07T10:45:10.821Z,10.80
2023-04-07T10:48:03.894Z,11.00
2023-04-07T10:50:31.037Z,11.30
2023-04-07T10:53:15.117Z,11.10
2023-04-07T10:55:46.666Z,11.40
2023-04-07T10:58:13.557Z,11.10
2023-04-07T11:00:40.312Z,10.70
2023-04-07T11:03:15.097Z,10.90
2023-04-07T11:05:42.801Z,10.90
2023-04-07T11:08:09.711Z,11.00
2023-04-07T11:10:37.467Z,11.00
2023-04-07T11:13:08.256Z,10.70
2023-04-07T11:15:40.427Z,10.90
2023-04-07T11:18:15.932Z,11.10
2023-04-07T11:20:47.186Z,11.30
2023-04-07T11:23:16.544Z,11.40
2023-04-07T11:25:45.310Z,11.40
2023-04-07T11:28:13.639Z,11.30
2023-04-07T11:30:47.026Z,11.20
2023-04-07T11:33:18.862Z,11.30
2023-04-07T11:35:55.969Z,11.10
2023-04-07T11:38:28.954Z,11.40
2023-04-07T11:40:56.915Z,11.50
2023-04-07T11:43:26.476Z,11.60
2023-04-07T11:46:09.316Z,11.60
2023-04-07T11:48:37.646Z,11.60
2023-04-07T11:51:05.800Z,11.60
2023-04-07T11:53:40.386Z,11.40
2023-04-07T11:56:16.761Z,11.20
2023-04-07T11:58:55.189Z,11.30
2023-04-07T12:01:24.779Z,11.50
2023-04-07T12:03:59.616Z,11.70
2023-04-07T12:06:32.302Z,12.00
2023-04-07T12:08:59.302Z,11.70
2023-04-07T12:11:26.542Z,11.70
2023-04-07T12:13:53.359Z,11.70
2023-04-07T12:16:23.908Z,11.90
2023-04-07T12:18:54.565Z,11.90
2023-04-07T12:21:21.490Z,11.90
2023-04-07T12:23:48.951Z,12.30
2023-04-07T12:26:16.140Z,12.30
2023-04-07T12:28:43.046Z,12.20
2023-04-07T12:31:10.501Z,12.10
2023-04-07T12:33:37.287Z,12.30
2023-04-07T12:36:04.522Z,12.40
2023-04-07T12:38:31.492Z,12.70
2023-04-07T12:41:03.398Z,12.70
2023-04-07T12:43:31.433Z,12.60
2023-04-07T12:45:58.553Z,12.30
2023-04-07T12:48:27.538Z,12.40
2023-04-07T12:50:55.567Z,12.30
2023-04-07T12:53:23.023Z,12.60
2023-04-07T12:55:50.592Z,12.90
2023-04-07T12:58:18.547Z,12.30
2023-04-07T13:00:46.924Z,12.20
2023-04-07T13:03:14.111Z,12.60
2023-04-07T13:05:41.265Z,12.50
2023-04-07T13:08:08.281Z,12.80
2023-04-07T13:10:35.179Z,12.70
2023-04-07T13:13:02.294Z,12.50
2023-04-07T13:15:29.185Z,12.30
2023-04-07T13:17:56.320Z,12.40
2023-04-07T13:20:23.821Z,13.00
2023-04-07T13:22:59.279Z,12.60
2023-04-07T13:25:32.927Z,12.50
2023-04-07T13:27:59.902Z,12.40
2023-04-07T13:30:27.530Z,12.30
2023-04-07T13:32:54.699Z,12.20
2023-04-07T13:35:21.690Z,12.30
2023-04-07T13:37:48.485Z,12.10
2023-04-07T13:40:16.116Z,12.30
2023-04-07T13:42:43.631Z,12.50
2023-04-07T13:45:11.008Z,12.70
2023-04-07T13:47:38.265Z,12.60
2023-04-07T13:50:06.271Z,12.70
2023-04-07T13:52:35.283Z,12.70
2023-04-07T13:55:04.469Z,12.70
2023-04-07T13:57:31.742Z,12.70
2023-04-07T13:59:59.254Z,12.60
2023-04-07T14:02:29.206Z,12.50
2023-04-07T14:04:57.080Z,12.60
2023-04-07T14:07:24.283Z,12.70
2023-04-07T14:09:51.353Z,12.90
2023-04-07T14:12:18.195Z,12.90
2023-04-07T14:14:45.018Z,12.70
2023-04-07T14:17:12.401Z,12.60
2023-04-07T14:19:39.195Z,12.60
2023-04-07T14:22:06.344Z,12.50
2023-04-07T14:24:33.485Z,12.50
2023-04-07T14:27:01.864Z,12.80
2023-04-07T14:29:28.726Z,12.90
2023-04-07T14:31:55.779Z,13.00
2023-04-07T14:34:22.995Z,13.10
2023-04-07T14:36:54.756Z,13.00
2023-04-07T14:39:22.965Z,12.80
2023-04-07T14:41:49.860Z,12.50
2023-04-07T14:44:16.964Z,12.80
2023-04-07T14:46:44.148Z,12.90
2023-04-07T14:49:11.419Z,13.00
2023-04-07T14:51:38.766Z,13.00
2023-04-07T14:54:05.729Z,13.20
2023-04-07T14:56:32.598Z,13.20
2023-04-07T14:58:59.485Z,13.10
2023-04-07T15:01:26.407Z,13.00
2023-04-07T15:03:53.641Z,13.10
2023-04-07T15:06:20.886Z,13.20
2023-04-07T15:08:47.924Z,13.30
2023-04-07T15:11:14.870Z,12.90
2023-04-07T15:13:42.168Z,13.00
2023-04-07T15:16:11.753Z,13.20
2023-04-07T15:18:41.263Z,13.20
2023-04-07T15:21:12.392Z,13.30
2023-04-07T15:23:40.591Z,13.60
2023-04-07T15:26:09.140Z,13.50
2023-04-07T15:28:36.274Z,13.40
2023-04-07T15:31:03.759Z,13.60
2023-04-07T15:33:31.129Z,13.60
2023-04-07T15:35:58.324Z,13.60
2023-04-07T15:38:25.276Z,13.30
2023-04-07T15:40:52.114Z,13.60
2023-04-07T15:43:19.117Z,13.70
2023-04-07T15:45:47.799Z,13.80
2023-04-07T15:48:15.328Z,13.70
2023-04-07T15:50:42.378Z,13.80
2023-04-07T15:53:09.880Z,13.80
2023-04-07T15:55:37.194Z,13.60
2023-04-07T15:58:04.716Z,13.50
2023-04-07T16:00:34.398Z,13.40
2023-04-07T16:03:02.681Z,13.30
2023-04-07T16:05:30.084Z,13.40
2023-04-07T16:07:57.273Z,13.30
2023-04-07T16:10:24.917Z,13.10
2023-04-07T16:12:52.400Z,13.20
2023-04-07T16:15:29.001Z,13.10
2023-04-07T16:18:08.986Z,13.00
2023-04-07T16:20:35.930Z,13.00
2023-04-07T16:23:02.798Z,13.00
2023-04-07T16:25:29.909Z,12.90
2023-04-07T16:27:56.784Z,12.90
2023-04-07T16:30:25.394Z,12.90
2023-04-07T16:32:52.711Z,12.90
2023-04-07T16:35:19.624Z,12.90
2023-04-07T16:37:46.741Z,12.50
2023-04-07T16:40:14.327Z,12.20
2023-04-07T16:42:41.400Z,12.20
2023-04-07T16:45:08.955Z,12.20
2023-04-07T16:47:37.404Z,12.30
2023-04-07T16:50:04.992Z,12.30
2023-04-07T16:52:32.271Z,12.30
2023-04-07T16:55:00.591Z,12.30
2023-04-07T16:57:27.575Z,12.30
2023-04-07T16:59:54.591Z,12.50
2023-04-07T17:02:22.149Z,12.60
2023-04-07T17:04:49.200Z,12.70
2023-04-07T17:07:16.620Z,12.70
2023-04-07T17:09:43.689Z,12.60
2023-04-07T17:12:10.841Z,12.70
2023-04-07T17:14:37.749Z,12.70
2023-04-07T17:17:04.713Z,12.60
2023-04-07T17:19:31.930Z,12.50
2023-04-07T17:21:59.484Z,12.40
2023-04-07T17:24:26.527Z,12.30
2023-04-07T17:26:53.565Z,12.20
2023-04-07T17:29:21.430Z,12.20
2023-04-07T17:31:50.240Z,12.10
2023-04-07T17:34:17.185Z,11.90
2023-04-07T17:36:44.349Z,11.80
2023-04-07T17:39:11.382Z,11.80
2023-04-07T17:41:38.773Z,11.50
2023-04-07T17:44:06.030Z,11.20
2023-04-07T17:46:33.139Z,11.10
2023-04-07T17:49:00.627Z,11.00
2023-04-07T17:51:27.925Z,10.70
2023-04-07T17:53:55.100Z,10.70
2023-04-07T17:56:22.593Z,10.80
2023-04-07T17:58:49.650Z,10.60
2023-04-07T18:01:17.050Z,10.50
2023-04-07T18:03:44.455Z,10.40
2023-04-07T18:06:16.721Z,10.30
2023-04-07T18:08:48.515Z,10.30
2023-04-07T18:11:17.583Z,10.30
2023-04-07T18:13:44.996Z,10.40
2023-04-07T18:16:17.311Z,10.40
2023-04-07T18:18:46.577Z,10.20
2023-04-07T18:21:13.732Z,10.30
2023-04-07T18:23:41.172Z,10.30
2023-04-07T18:26:08.405Z,10.40
2023-04-07T18:28:35.981Z,10.40
2023-04-07T18:31:07.240Z,10.30
2023-04-07T18:33:35.740Z,10.10
2023-04-07T18:36:07.876Z,9.80
2023-04-07T18:38:36.469Z,9.60
2023-04-07T18:41:03.949Z,9.30
2023-04-07T18:43:31.604Z,9.30
2023-04-07T18:45:59.184Z,9.20
2023-04-07T18:48:26.574Z,9.10
2023-04-07T18:50:55.113Z,9.00
2023-04-07T18:53:23.077Z,8.90
2023-04-07T18:55:50.339Z,8.80
2023-04-07T18:58:17.985Z,8.70
2023-04-07T19:00:44.907Z,8.70
2023-04-07T19:03:12.143Z,8.70
2023-04-07T19:05:42.358Z,8.60
2023-04-07T19:08:09.842Z,8.50
2023-04-07T19:10:36.619Z,8.40
2023-04-07T19:13:04.456Z,8.40
2023-04-07T19:15:34.657Z,8.20
2023-04-07T19:18:02.411Z,8.00
2023-04-07T19:20:34.057Z,7.90
2023-04-07T19:23:02.033Z,7.80
2023-04-07T19:25:30.328Z,7.70
2023-04-07T19:27:58.276Z,7.70
2023-04-07T19:30:25.244Z,7.60
2023-04-07T19:32:52.940Z,7.60
2023-04-07T19:35:19.947Z,7.60
2023-04-07T19:37:48.122Z,7.50
2023-04-07T19:40:15.926Z,7.50
2023-04-07T19:42:43.065Z,7.40
2023-04-07T19:45:10.538Z,7.30
2023-04-07T19:47:38.893Z,7.20
2023-04-07T19:50:06.393Z,7.20
2023-04-07T19:52:33.378Z,7.00
2023-04-07T19:55:01.486Z,7.10
2023-04-07T19:57:29.044Z,7.00
2023-04-07T19:59:56.283Z,7.10
2023-04-07T20:02:23.663Z,7.00
2023-04-07T20:04:51.406Z,6.90
2023-04-07T20:07:18.266Z,6.90
2023-04-07T20:09:45.462Z,6.80
2023-04-07T20:12:12.356Z,6.70
2023-04-07T20:14:39.324Z,6.60
2023-04-07T20:17:06.835Z,6.60
2023-04-07T20:19:33.732Z,6.50
2023-04-07T20:22:00.806Z,6.50
2023-04-07T20:24:28.337Z,6.50
2023-04-07T20:26:55.983Z,6.50
2023-04-07T20:29:22.867Z,6.40
2023-04-07T20:31:49.890Z,6.30
2023-04-07T20:34:16.760Z,6.30
2023-04-07T20:36:43.788Z,6.30
2023-04-07T20:39:10.848Z,6.20
2023-04-07T20:41:38.655Z,6.20
2023-04-07T20:44:05.575Z,6.10
2023-04-07T20:46:33.850Z,6.30
2023-04-07T20:49:00.876Z,6.20
2023-04-07T20:51:29.117Z,6.20
2023-04-07T20:53:55.943Z,6.50
2023-04-07T20:56:23.760Z,6.70
2023-04-07T20:58:51.294Z,6.70
2023-04-07T21:01:19.434Z,6.60
2023-04-07T21:03:47.534Z,6.80
2023-04-07T21:06:14.749Z,6.70
2023-04-07T21:08:41.551Z,6.70
2023-04-07T21:11:08.680Z,6.70
2023-04-07T21:13:35.784Z,6.70
2023-04-07T21:16:05.064Z,6.60
2023-04-07T21:18:32.554Z,6.60
2023-04-07T21:21:02.170Z,6.50
2023-04-07T21:23:31.203Z,6.50
2023-04-07T21:26:02.342Z,6.60
2023-04-07T21:28:29.138Z,6.70
2023-04-07T21:30:56.805Z,6.70
2023-04-07T21:33:24.303Z,6.60
2023-04-07T21:35:51.971Z,6.50
2023-04-07T21:38:19.152Z,6.40
2023-04-07T21:40:46.359Z,6.40
2023-04-07T21:43:13.288Z,6.40
2023-04-07T21:45:40.663Z,6.40
2023-04-07T21:48:08.159Z,6.30
2023-04-07T21:50:36.255Z,6.20
2023-04-07T21:53:03.485Z,6.20
2023-04-07T21:55:30.576Z,6.20
2023-04-07T21:57:58.084Z,6.10
2023-04-07T22:00:25.213Z,6.10
2023-04-07T22:02:52.419Z,6.10
2023-04-07T22:05:19.490Z,6.10
2023-04-07T22:07:47.071Z,6.10
2023-04-07T22:10:14.073Z,6.10
2023-04-07T22:12:41.604Z,6.00
2023-04-07T22:15:09.788Z,5.90
2023-04-07T22:17:36.755Z,5.90
2023-04-07T22:20:05.420Z,5.90
2023-04-07T22:22:32.420Z,5.90
2023-04-07T22:24:59.289Z,5.90
2023-04-07T22:27:27.863Z,5.90
2023-04-07T22:29:54.861Z,5.90
2023-04-07T22:32:22.078Z,5.90
2023-04-07T22:34:49.429Z,5.90
2023-04-07T22:37:16.928Z,5.80
2023-04-07T22:39:46.667Z,5.70
2023-04-07T22:42:13.680Z,5.80
2023-04-07T22:44:40.999Z,5.80
2023-04-07T22:47:08.095Z,5.80
2023-04-07T22:49:35.910Z,5.70
2023-04-07T22:52:03.313Z,5.70
2023-04-07T22:54:30.579Z,5.70
2023-04-07T22:56:57.624Z,5.60
2023-04-07T22:59:25.686Z,5.50
2023-04-07T23:01:52.767Z,5.40
2023-04-07T23:04:21.384Z,5.40
2023-04-07T23:06:51.417Z,5.40
2023-04-07T23:09:18.267Z,5.30
2023-04-07T23:11:47.777Z,5.30
2023-04-07T23:14:15.138Z,5.30
2023-04-07T23:16:41.993Z,5.10
2023-04-07T23:19:12.170Z,5.00
2023-04-07T23:21:39.814Z,5.20
2023-04-07T23:24:07.078Z,5.20
2023-04-07T23:26:33.972Z,5.20
2023-04-07T23:29:00.976Z,5.30
2023-04-07T23:31:28.452Z,5.20
2023-04-07T23:33:55.475Z,5.10
2023-04-07T23:36:22.754Z,5.20
2023-04-07T23:38:50.120Z,5.10
2023-04-07T23:41:17.099Z,5.10
2023-04-07T23:43:44.297Z,5.10
2023-04-07T23:46:11.300Z,5.00
2023-04-07T23:48:38.325Z,5.00
2023-04-07T23:51:06.489Z,5.00
2023-04-07T23:53:33.257Z,5.00
2023-04-07T23:56:00.062Z,5.00
2023-04-07T23:58:27.328Z,5.10
